EmailTwitter


Surface observations / Quebec / CYHU (71371)

Regions: Quebec | Canada | USA | Europe | France | UK | Elsewhere
Station
Display
Info & Location for CYHU (71371) | Help decoding METAR

Weather Conditions observed on 2017/09/21 at 10:00 UTC at MONTREAL/ST HUBE, QB (CYHU)

Sky conditions: clear.

Temperature: 12.0 Celsius.

Dewpoint: 10.0 Celsius.

Relative Humidity: 88%

Winds: Northeast at 9 km/h or 5 knots.

Mean Sea level Pressure: 102.01 kilopascals.

Altimeter Setting (QNH): 102.00 kilopascals or 30.12 inches of mercury.

Horizontal visibility: 9.00 statute miles or 14.40 kilometers.

Coded METAR:

CYHU 211000Z AUTO 03005KT 9SM CLR 12/10 A3012 RMK SLP201=